Flight Track Log - Related Links

Times and Time Zones

All times are in EDT time to prevent confusion due to time zone crossing. See the GJS3707 flight status page for this flight to view local times or setup timezone preferences in your user account.

Time Position Orientation Groundspeed Altitude Reporting Facility
EDT Latitude Longitude Course Direction KTS MPH feet Rate Location/Type
Tue 11:00:36 AM 41.9667 -87.9500 270° West 164 189 1,900  Level Chicago TRACON
Tue 11:01:30 AM 41.9833 -88.0167 289° West 187 215 3,700 2,132 Climbing Chicago TRACON
Tue 11:02:37 AM 41.9833 -88.1000 270° West 225 259 6,200 2,162 Climbing Chicago TRACON
Tue 11:03:46 AM 41.9886 -88.2014 274° West 244 281 8,600 2,244 Climbing Chicago Center
Tue 11:04:00 AM 41.9668 -88.6409 270° West  Level FlightAware Approximate
Tue 11:04:48 AM 41.9928 -88.2989 273° West 261 300 11,100  Level Chicago Center
Tue 11:05:00 AM 41.9667 -88.7891 270° West  Level FlightAware Approximate
Tue 11:05:49 AM 41.9950 -88.4028 272° West 277 319 13,100  Level Chicago Center
Tue 11:06:51 AM 41.9931 -88.5114 269° West 291 335 15,100 1,742 Climbing Chicago Center
Tue 11:07:53 AM 41.9981 -88.6236 273° West 300 345 16,700 1,854 Climbing Chicago Center
Tue 11:08:54 AM 42.0089 -88.7656 276° West 319 367 18,900 1,854 Climbing Chicago Center
Tue 11:09:56 AM 42.0222 -88.8869 278° West 329 379 20,500 1,597 Climbing Chicago Center
Tue 11:10:58 AM 42.0331 -89.0122 277° West 336 387 22,200 1,415 Climbing Chicago Center
Tue 11:11:59 AM 42.0481 -89.1381 279° West 340 391 23,400 1,073 Climbing Chicago Center
Tue 11:13:01 AM 42.0642 -89.2703 279° West 358 412 24,400 1,024 Climbing Chicago Center
Tue 11:14:02 AM 42.0814 -89.4247 279° West 374 430 25,500 1,024 Climbing Chicago Center
Tue 11:15:04 AM 42.0989 -89.5675 279° West 386 444 26,500 968 Climbing Chicago Center
Tue 11:16:06 AM 42.1211 -89.7133 282° West 395 455 27,500 976 Climbing Chicago Center
Tue 11:17:07 AM 42.1422 -89.8592 281° West 398 458 28,500 1,073 Climbing Chicago Center
Tue 11:18:09 AM 42.1708 -90.0269 283° West 399 459 29,700 1,073 Climbing Chicago Center
Tue 11:19:10 AM 42.1731 -90.1767 271° West 401 461 30,700 976 Climbing Chicago Center
Tue 11:20:12 AM 42.1792 -90.3231 273° West 397 457 31,700 871 Climbing Chicago Center
Tue 11:21:14 AM 42.1842 -90.4703 273° West 396 456 32,500 780 Climbing Chicago Center
Tue 11:22:15 AM 42.1908 -90.6186 274° West 398 458 33,300 732 Climbing Chicago Center
Tue 11:23:17 AM 42.2106 -90.7658 280° West 406 467 34,000 339 Climbing Chicago Center
Tue 11:24:19 AM 42.2614 -90.9083 296° West 421 484 34,000  Level Chicago Center
Tue 11:25:20 AM 42.3219 -91.0797 296° West 425 489 34,000  Level Chicago Center
Tue 11:26:22 AM 42.3731 -91.2200 296° West 421 484 34,000  Level Chicago Center
Tue 11:27:24 AM 42.4219 -91.3625 295° West 419 482 34,000  Level Chicago Center
Tue 11:28:25 AM 42.4717 -91.5019 296° West 415 478 34,000  Level Chicago Center
Tue 11:29:27 AM 42.5214 -91.6425 296° West 414 476 34,000  Level Chicago Center
Tue 11:30:29 AM 42.5708 -91.7839 295° West 413 475 34,000  Level Chicago Center
Tue 11:31:30 AM 42.6192 -91.9244 295° West 409 471 34,000  Level Chicago Center
Tue 11:32:32 AM 42.6686 -92.0661 295° West 414 476 34,000  Level Chicago Center
Tue 11:33:34 AM 42.7264 -92.2358 295° West 413 475 34,000  Level Chicago Center
Tue 11:34:35 AM 42.7756 -92.3781 295° West 417 480 34,000  Level Chicago Center
Tue 11:35:37 AM 42.8231 -92.5197 295° West 417 480 34,000  Level Chicago Center
Tue 11:36:30 AM 42.8603 -92.6347 294° West 415 478 34,000  Level Minneapolis Center
Tue 11:37:32 AM 42.9192 -92.8056 295° West 417 480 34,000  Level Minneapolis Center
Tue 11:38:34 AM 42.9669 -92.9481 295° West 418 481 34,000  Level Minneapolis Center
Tue 11:39:36 AM 43.0156 -93.0914 295° West 417 480 34,000  Level Minneapolis Center
Tue 11:40:37 AM 43.0611 -93.2367 293° West 419 482 34,000  Level Minneapolis Center
Tue 11:41:39 AM 43.1039 -93.3806 292° West 415 478 34,000  Level Minneapolis Center
Tue 11:42:41 AM 43.1292 -93.5336 283° West 413 475 34,000  Level Minneapolis Center
Tue 11:43:43 AM 43.1614 -93.7164 284° West 416 479 34,000  Level Minneapolis Center
Tue 11:44:45 AM 43.1881 -93.8692 284° West 416 479 34,000  Level Minneapolis Center
Tue 11:45:46 AM 43.2147 -94.0214 284° West 414 476 34,000  Level Minneapolis Center
Tue 11:46:48 AM 43.2406 -94.1750 283° West 417 480 34,000  Level Minneapolis Center
Tue 11:47:50 AM 43.2697 -94.3461 283° West 417 480 34,000  Level Minneapolis Center
Tue 11:48:52 AM 43.2950 -94.5011 283° West 417 480 34,000  Level Minneapolis Center
Tue 11:49:54 AM 43.3211 -94.6558 283° West 416 479 34,000  Level Minneapolis Center
Tue 11:50:55 AM 43.3467 -94.8114 283° West 418 481 34,000  Level Minneapolis Center
Tue 11:51:57 AM 43.3728 -94.9706 283° West 423 487 34,000  Level Minneapolis Center
Tue 11:52:59 AM 43.4033 -95.1608 283° West 427 491 34,000  Level Minneapolis Center
Tue 11:54:00 AM 43.4233 -95.2878 282° West 425 489 34,000  Level Minneapolis Center
Tue 11:55:02 AM 43.4533 -95.4797 282° West 428 493 34,000  Level Minneapolis Center
Tue 11:56:04 AM 43.4789 -95.6400 282° West 428 493 34,000  Level Minneapolis Center
Tue 11:57:06 AM 43.5028 -95.8000 282° West 427 491 34,000  Level Minneapolis Center
Tue 11:58:08 AM 43.5275 -95.9594 282° West 425 489 34,000  Level Minneapolis Center
Tue 11:59:10 AM 43.5514 -96.1175 282° West 422 486 34,000  Level Minneapolis Center
Tue 12:00:11 PM 43.5800 -96.3089 282° West 423 487 34,000  Level Minneapolis Center
Tue 12:01:13 PM 43.6033 -96.4681 281° West 422 486 34,000  Level Minneapolis Center
Tue 12:02:15 PM 43.6275 -96.6278 282° West 424 488 34,000  Level Minneapolis Center
Tue 12:03:17 PM 43.6500 -96.7869 281° West 423 487 34,000 44 Level Minneapolis Center
Tue 12:04:31 PM 43.6619 -96.9481 276° West 421 484 34,100 356 Climbing Minneapolis Center
Tue 12:05:32 PM 43.6758 -97.1122 277° West 428 493 34,800 683 Climbing Minneapolis Center
Tue 12:06:34 PM 43.6906 -97.3106 276° West 431 496 35,500 581 Climbing Minneapolis Center
Tue 12:07:36 PM 43.7033 -97.4775 276° West 436 502 36,000 242 Climbing Minneapolis Center
Tue 12:08:38 PM 43.7178 -97.6811 276° West 444 511 36,000  Level Minneapolis Center
Tue 12:09:40 PM 43.7308 -97.8547 276° West 453 521 36,000  Level Minneapolis Center
Tue 12:10:41 PM 43.7422 -98.0250 275° West 448 516 36,000  Level Minneapolis Center
Tue 12:11:43 PM 43.7536 -98.1931 275° West 441 507 36,000  Level Minneapolis Center
Tue 12:12:45 PM 43.7642 -98.3606 275° West 439 505 36,000  Level Minneapolis Center
Tue 12:13:47 PM 43.7756 -98.5256 276° West 432 497 36,000  Level Minneapolis Center
Tue 12:14:49 PM 43.7886 -98.7169 275° West 429 494 36,000  Level Minneapolis Center
Tue 12:15:50 PM 43.7956 -98.8481 274° West 427 491 36,000  Level Minneapolis Center
Tue 12:16:52 PM 43.8083 -99.0433 275° West 424 488 36,000  Level Minneapolis Center
Tue 12:17:54 PM 43.8158 -99.1719 275° West 420 483 36,000  Level Minneapolis Center
Tue 12:18:55 PM 43.8253 -99.3328 275° West 419 482 36,000  Level Minneapolis Center
Tue 12:19:58 PM 43.8350 -99.5286 274° West 422 486 36,000  Level Minneapolis Center
Tue 12:20:59 PM 43.8439 -99.6886 274° West 419 482 36,000  Level Minneapolis Center
Tue 12:22:26 PM 43.8561 -99.9122 274° West 416 479 36,000  Level Minneapolis Center
Tue 12:23:28 PM 43.8664 -100.1047 274° West 416 479 36,000  Level Minneapolis Center
Tue 12:24:30 PM 43.8736 -100.2636 274° West 416 479 36,000  Level Minneapolis Center
Tue 12:25:31 PM 43.8811 -100.4239 274° West 415 478 36,000  Level Minneapolis Center
Tue 12:26:33 PM 43.8894 -100.5842 274° West 416 479 36,000  Level Minneapolis Center
Tue 12:27:35 PM 43.8964 -100.7450 273° West 417 480 36,000  Level Minneapolis Center
Tue 12:28:37 PM 43.9039 -100.9047 274° West 415 478 36,000  Level Minneapolis Center
Tue 12:29:39 PM 43.9108 -101.0617 274° West 410 472 36,000  Level Minneapolis Center
Tue 12:30:41 PM 43.9183 -101.2500 273° West 409 471 36,000  Level Minneapolis Center
Tue 12:31:43 PM 43.9247 -101.4072 273° West 408 470 36,000  Level Minneapolis Center
Tue 12:32:44 PM 43.9306 -101.5650 273° West 408 470 36,000  Level Minneapolis Center
Tue 12:33:46 PM 43.9356 -101.7208 273° West 407 468 36,000  Level Minneapolis Center
Tue 12:34:01 PM 43.9361 -101.7528 271° West 409 471 36,000  Level Denver Center
Tue 12:35:03 PM 43.9406 -101.9064 272° West 402 463 36,000  Level Denver Center
Tue 12:36:06 PM 43.9461 -102.0961 272° West 407 468 36,000  Level Denver Center
Tue 12:37:08 PM 43.9525 -102.2542 273° West 409 471 36,000  Level Denver Center
Tue 12:38:10 PM 43.9581 -102.4119 273° West 410 472 36,000  Level Denver Center
Tue 12:39:12 PM 43.9625 -102.5681 272° West 407 468 36,000  Level Denver Center
Tue 12:40:14 PM 43.9681 -102.7267 273° West 410 472 36,000  Level Denver Center
Tue 12:41:16 PM 43.9736 -102.8906 273° West 408 470 36,000  Level Denver Center
Tue 12:42:18 PM 43.9781 -103.0644 272° West 406 467 36,000  Level Denver Center
Tue 12:43:20 PM 43.9811 -103.2150 272° West 407 468 36,000  Level Denver Center
Tue 12:44:22 PM 43.9842 -103.3889 271° West 406 467 36,000  Level Denver Center
Tue 12:45:24 PM 43.9872 -103.5372 272° West 405 466 36,000  Level Denver Center
Tue 12:46:26 PM 43.9889 -103.7117 271° West 406 467 36,000  Level Denver Center
Tue 12:47:28 PM 43.9914 -103.8617 271° West 407 468 36,000  Level Denver Center
Tue 12:48:30 PM 43.9942 -104.0347 271° West 403 464 36,000  Level Denver Center
Tue 12:49:32 PM 43.9961 -104.1853 271° West 406 467 36,000  Level Denver Center
Tue 12:50:34 PM 43.9972 -104.3089 271° West 404 465 36,000  Level Denver Center
Tue 12:51:36 PM 44.0000 -104.5083 271° West 406 467 36,000  Level Denver Center
Tue 12:52:38 PM 44.0017 -104.6822 271° West 406 467 36,000  Level Denver Center
Tue 12:53:40 PM 44.0031 -104.8319 271° West 407 468 36,000  Level Denver Center
Tue 12:54:42 PM 44.0025 -105.0058 270° West 405 466 36,000  Level Denver Center
Tue 12:55:44 PM 44.0042 -105.1550 271° West 405 466 36,000  Level Denver Center
Tue 12:56:46 PM 44.0031 -105.3314 270° West 409 471 36,000  Level Denver Center
Tue 12:57:49 PM 44.0044 -105.4797 271° West 406 467 36,000  Level Denver Center
Tue 12:58:51 PM 44.0047 -105.6294 270° West 407 468 36,000  Level Denver Center
Tue 12:59:53 PM 44.0033 -105.8058 269° West 410 472 36,000  Level Denver Center
Tue 01:00:55 PM 44.0050 -105.9550 271° West 407 468 36,000  Level Denver Center
Tue 01:01:57 PM 44.0025 -106.1308 269° West 408 470 36,000  Level Denver Center
Tue 01:02:41 PM 44.0008 -106.2450 269° West 409 471 36,000  Level Salt Lake Center
Tue 01:03:43 PM 43.9992 -106.3975 269° West 410 472 36,000  Level Salt Lake Center
Tue 01:04:01 PM 44.0008 -106.4583 272° West 408 470 36,000  Level Denver Center
Tue 01:05:03 PM 44.0072 -106.6083 273° West 408 470 36,000  Level Denver Center
Tue 01:05:47 PM 44.0108 -106.7261 272° West 412 474 36,000  Level Salt Lake Center
Tue 01:06:48 PM 44.0169 -106.9031 273° West 412 474 36,000  Level Salt Lake Center
Tue 01:07:07 PM 44.0200 -106.9539 275° West 411 473 36,000  Level Denver Center
Tue 01:08:09 PM 44.0250 -107.1042 273° West 408 470 36,000  Level Denver Center
Tue 01:08:52 PM 44.0283 -107.2303 272° West 408 470 36,000  Level Salt Lake Center
Tue 01:09:53 PM 44.0336 -107.3817 273° West 408 470 36,000  Level Salt Lake Center
Tue 01:10:55 PM 44.0383 -107.5347 273° West 413 475 36,000  Level Salt Lake Center
Tue 01:11:57 PM 44.0389 -107.7139 270° West 413 475 36,000  Level Salt Lake Center
Tue 01:12:59 PM 44.0361 -107.8675 269° West 414 476 36,000  Level Salt Lake Center
Tue 01:14:00 PM 44.0331 -108.0447 269° West 410 472 36,000  Level Salt Lake Center
Tue 01:15:02 PM 44.0294 -108.2011 268° West 419 482 36,000  Level Salt Lake Center
Tue 01:16:04 PM 44.0258 -108.3569 268° West 422 486 36,000  Level Salt Lake Center
Tue 01:17:05 PM 44.0222 -108.5400 268° West 424 488 36,000  Level Salt Lake Center
Tue 01:18:07 PM 44.0181 -108.6964 268° West 424 488 36,000  Level Salt Lake Center
Tue 01:19:09 PM 44.0114 -108.8797 267° West 426 490 36,000  Level Salt Lake Center
Tue 01:20:10 PM 44.0086 -109.0358 269° West 423 487 36,000  Level Salt Lake Center
Tue 01:21:12 PM 44.0033 -109.1931 267° West 424 488 36,000  Level Salt Lake Center
Tue 01:22:14 PM 43.9972 -109.3758 267° West 425 489 36,000  Level Salt Lake Center
Tue 01:23:15 PM 43.9917 -109.5411 267° West 421 484 36,000  Level Salt Lake Center
Tue 01:24:17 PM 43.9869 -109.6964 268° West 421 484 36,000  Level Salt Lake Center
Tue 01:25:19 PM 43.9803 -109.8797 267° West 424 488 36,000  Level Salt Lake Center
Tue 01:26:20 PM 43.9739 -110.0375 267° West 428 493 36,000  Level Salt Lake Center
Tue 01:27:22 PM 43.9672 -110.2208 267° West 427 491 36,000  Level Salt Lake Center
Tue 01:28:24 PM 43.9600 -110.3808 266° West 432 497 36,000  Level Salt Lake Center
Tue 01:29:25 PM 43.9533 -110.5403 267° West 433 498 36,000  Level Salt Lake Center
Tue 01:30:27 PM 43.9456 -110.7267 267° West 433 498 36,000  Level Salt Lake Center
Tue 01:31:29 PM 43.9383 -110.8869 266° West 435 501 36,000  Level Salt Lake Center
Tue 01:32:30 PM 43.9292 -111.0747 266° West 436 502 36,000  Level Salt Lake Center
Tue 01:33:32 PM 43.9214 -111.2364 266° West 438 504 36,000  Level Salt Lake Center
Tue 01:34:34 PM 43.9131 -111.3981 266° West 437 503 36,000  Level Salt Lake Center
Tue 01:35:35 PM 43.9028 -111.5881 266° West 440 506 36,000  Level Salt Lake Center
Tue 01:36:37 PM 43.8950 -111.7500 266° West 439 505 36,000  Level Salt Lake Center
Tue 01:37:40 PM 43.8833 -111.9411 265° West 444 511 36,000  Level Salt Lake Center
Tue 01:38:40 PM 43.8742 -112.1050 266° West 444 511 36,000  Level Salt Lake Center
Tue 01:39:42 PM 43.8625 -112.2986 265° West 449 517 36,000  Level Salt Lake Center
Tue 01:40:44 PM 43.8531 -112.4658 266° West 452 520 36,000  Level Salt Lake Center
Tue 01:41:46 PM 43.8425 -112.6331 265° West 454 522 36,000  Level Salt Lake Center
Tue 01:42:47 PM 43.8297 -112.8283 265° West 456 525 36,000  Level Salt Lake Center
Tue 01:43:49 PM 43.8192 -112.9969 265° West 459 528 36,000  Level Salt Lake Center
Tue 01:44:51 PM 43.8061 -113.1925 265° West 456 525 36,000  Level Salt Lake Center
Tue 01:45:53 PM 43.7947 -113.3608 265° West 458 527 36,000  Level Salt Lake Center
Tue 01:46:55 PM 43.7814 -113.5600 265° West 464 534 36,000  Level Salt Lake Center
Tue 01:47:56 PM 43.7714 -113.7283 265° West 458 527 36,000  Level Salt Lake Center
Tue 01:48:58 PM 43.7567 -113.9183 264° West 458 527 36,000  Level Salt Lake Center
Tue 01:50:00 PM 43.7422 -114.0942 264° West 457 526 36,000  Level Salt Lake Center
Tue 01:51:02 PM 43.7306 -114.2617 265° West 457 526 36,000  Level Salt Lake Center
Tue 01:52:03 PM 43.7150 -114.4578 264° West 458 527 36,000 -390 Level Salt Lake Center
Tue 01:53:05 PM 43.7019 -114.6261 264° West 460 529 35,200 -1,790 Descending Salt Lake Center
Tue 01:54:07 PM 43.6883 -114.7897 263° West 447 514 32,300 -3,339 Descending Salt Lake Center
Tue 01:55:09 PM 43.6753 -114.9744 264° West 431 496 28,300 -3,919 Descending Salt Lake Center
Tue 01:56:11 PM 43.6606 -115.1317 263° West 430 495 24,200 -4,488 Descending Salt Lake Center
Tue 01:57:12 PM 43.6456 -115.3147 264° West 433 498 19,100 -4,780 Descending Salt Lake Center
Tue 01:58:14 PM 43.6317 -115.4775 263° West 412 474 14,400 -3,435 Descending Salt Lake Center
Tue 01:59:16 PM 43.5978 -115.6169 251° West 371 427 12,000 -1,548 Descending Salt Lake Center
Tue 02:00:18 PM 43.5569 -115.7286 243° Southwest 315 362 11,200 -1,016 Descending Salt Lake Center
Tue 02:01:20 PM 43.5208 -115.8222 242° Southwest 294 338 9,900 -1,403 Descending Salt Lake Center
Tue 02:02:22 PM 43.4869 -115.9128 243° Southwest 262 302 8,300 -1,610 Descending Salt Lake Center
Tue 02:03:23 PM 43.4864 -116.0006 270° West 230 265 6,600 -1,366 Descending Salt Lake Center
Tue 02:04:25 PM 43.5081 -116.0650 295° West 183 211 5,500 -1,065 Descending Salt Lake Center

Login

Don't have an account? Register now (free) for customized features, flight alerts, and more!